AirNav   Textron
 
 773 users online  

VT32 Bobby Heliport
Brookline, Vermont, USA

GOING TO BROOKLINE?


FAA INFORMATION EFFECTIVE 20 JULY 2017

Location

FAA Identifier: VT32
Lat/Long: 42-59-20.2890N / 072-37-41.3300W
42-59.338150N / 072-37.688833W
42.9889692 / -72.6281472
(estimated)
Elevation: 420 ft. / 128 m (estimated)
Variation: 15W (1985)
From city: 3 miles SE of BROOKLINE, VT
Time zone: UTC -4 (UTC -5 during Standard Time)
Zip code: 05345

Heliport Operations

Heliport use: Private use, PERSONAL USE.
Activation date: 07/1990
Control tower: no
ARTCC: BOSTON CENTER
FSS: BURLINGTON FLIGHT SERVICE STATION
Attendance: UNATNDD
Segmented circle: no

Heliport Communications

WX AWOS-3PT at EEN (17 nm E): 119.025 (603-358-6424)

Nearby radio navigation aids

VOR radial/distance  VOR name  Freq  Var
EENr322/18.8KEENE VORTAC109.4014W
CAMr105/31.4CAMBRIDGE VOR/DME115.0014W
RUTr171/35.2RUTLAND VOR/DME111.0015W
GDMr331/36.6GARDNER VOR/DME110.6014W

 
NDB name  Hdg/Dist  Freq  Var  ID
CLAREMONT222/25.423316WCNH -.-. -. ....

Heliport Services

Runway Information

Helipad H1

Dimensions: 75 x 50 ft. / 23 x 15 m
Surface: turf
Traffic pattern: leftleft

Heliport Ownership and Management from official FAA records

Ownership: Privately-owned
Owner: HERBERT D HOWE
125 WHITE OAK RUN
DARTMOUTH, MA 02747
Phone 508-636-4376
Manager: HERBERT D HOWE
125 WHITE OAK RUN
DARTMOUTH, MA 02747
Phone 508-636-4376

Heliport Operational Statistics

Aircraft based on the field: 1
Helicopters: 1
    

Instrument Procedures

There are no published instrument procedures at VT32.

Some nearby airports with instrument procedures:

4V8 - Deerfield Valley Regional Airport (11 nm W)
KEEN - Dillant-Hopkins Airport (17 nm E)
KVSF - Hartness State Airport (Springfield) (22 nm N)
0B5 - Turners Falls Airport (24 nm S)
KCNH - Claremont Municipal Airport (26 nm NE)
 
Loc | Ops | Rwys | IFR | FBO | Links
Com | Nav | Svcs | Stats | Notes


 
Area around VT32 (Bobby Heliport)
 
Road maps at: MapQuest Bing Google
 
Aerial photo
No photo
 
Sectional chart

 
Airport distance calculator
Flying to Bobby Heliport? Find the distance to fly.

From to VT32

Sunrise and sunset
Times for 21-Jul-2017
 Local
(UTC-4)
 Zulu
(UTC)
Morning civil twilight04:5808:58
Sunrise05:3109:31
Sunset20:2200:22
Evening civil twilight20:5600:56

Current date and time
Zulu (UTC)  22-Jul-2017 03:09:46
Local (UTC-4)  21-Jul-2017 23:09:46
 
METAR
KEEN 
17nm E 
220256Z AUTO 18004KT 10SM CLR 19/17 A2985 RMK AO2 SLP122 T01890167 53009
KVSF 
22nm N 
220254Z AUTO 31006KT 10SM CLR 23/13 A2985 RMK AO2 SLP107 T02280133 51012
KDDH 
28nm W 
220254Z AUTO 00000KT 10SM CLR 22/16 A2989 RMK AO2 SLP115 T02170156 50005
KAQW 
29nm SW 
220252Z AUTO 34003KT 10SM CLR 18/17 A2988 RMK AO2 SLP115 T01830167 50005
KORE 
30nm SE 
220252Z AUTO 24006KT 10SM CLR 23/16 A2986 RMK AO2 SLP109 T02280156 51006 TSNO
KAFN 
30nm E 
220252Z AUTO 00000KT 10SM CLR 21/17 A2988 RMK AO2 SLP115 T02110167 51008
TAF
KRUT 
35nm NW 
211739Z 2118/2218 26008KT P6SM BKN045 FM220300 14004KT P6SM FEW200 FM221700 30007KT P6SM BKN070
KLEB 
41nm N 
211720Z 2118/2218 VRB03KT P6SM FEW050 FM220700 00000KT 1/4SM FG VV001 FM221200 32005KT P6SM SCT100
NOTAMs
Click for the latest NOTAMs
NOTAMs are issued by the DoD/FAA and will open in a separate window not controlled by AirNav.

 

 
 

Would you like to see your business listed on this page?

 If your business provides an interesting product or service to pilots, flight crews, aircraft, or users of the Bobby Heliport, you should consider listing it here.  To start the listing process, click on the button below
 
Add a business
 

Other Pages about Bobby Heliport

Update a link
 
Copyright © AirNav, LLC. All rights reserved. Privacy Policy  Contact